Time;durP1;ratioP1;P1;durP2;ratioP2;P2;SDS_P1;SDS_P2;PMS_P1;PMS_P2;Temp;Humidity;BMP_temperature;BMP_pressure;BME280_temperature;BME280_humidity;BME280_pressure;Samples;Min_cycle;Max_cycle;Signal;HPM_P1;HPM_P2
2022/05/02 00:00:44;;;;;;;9.50;7.10;;;;;;;16.49;44.58;93458.06;5039683;28;20045;-83
2022/05/02 00:03:10;;;;;;;8.55;7.20;;;;;;;16.49;44.87;93460.78;5026982;28;20124;-82
2022/05/02 00:05:36;;;;;;;6.82;6.13;;;;;;;16.49;44.71;93458.81;5051053;28;20585;-81
2022/05/02 00:08:01;;;;;;;7.80;6.72;;;;;;;16.49;44.83;93450.63;5037738;28;20049;-81
2022/05/02 00:10:27;;;;;;;8.77;7.88;;;;;;;16.50;44.36;93446.66;5029451;28;20045;-81
2022/05/02 00:12:53;;;;;;;7.90;7.07;;;;;;;16.50;44.83;93446.66;5046193;28;20025;-82
2022/05/02 00:15:18;;;;;;;7.82;6.78;;;;;;;16.48;45.03;93448.38;5035964;28;20021;-81
2022/05/02 00:17:56;;;;;;;7.80;7.00;;;;;;;16.49;44.57;93445.16;5035006;28;20039;-82
2022/05/02 00:20:26;;;;;;;7.57;6.63;;;;;;;16.48;44.57;93443.69;5024569;28;20139;-81
2022/05/02 00:22:51;;;;;;;8.15;7.03;;;;;;;16.46;44.60;93441.44;5014275;28;20025;-81
2022/05/02 00:25:17;;;;;;;7.78;6.57;;;;;;;16.48;44.86;93437.47;5012034;28;20534;-81
2022/05/02 00:27:42;;;;;;;8.02;6.65;;;;;;;16.48;44.32;93432.00;5028424;28;20641;-81
2022/05/02 00:30:09;;;;;;;7.50;6.40;;;;;;;16.47;44.63;93428.53;5012798;28;20128;-83
2022/05/02 00:32:34;;;;;;;8.48;7.53;;;;;;;16.46;44.74;93429.78;5008793;28;20550;-81
2022/05/02 00:34:59;;;;;;;8.00;7.18;;;;;;;16.47;44.53;93431.28;5006758;28;20219;-81
2022/05/02 00:37:25;;;;;;;9.05;7.57;;;;;;;16.47;44.64;93434.00;4984365;28;20037;-81
2022/05/02 00:39:50;;;;;;;8.02;6.78;;;;;;;16.48;44.38;93435.50;5001378;28;20040;-82
2022/05/02 00:42:16;;;;;;;7.70;6.90;;;;;;;16.46;44.65;93437.97;5011241;28;20491;-82
2022/05/02 00:44:45;;;;;;;7.55;6.72;;;;;;;16.46;44.50;93430.53;5012031;28;20063;-82
2022/05/02 00:47:10;;;;;;;7.65;6.05;;;;;;;16.46;44.78;93427.06;5000034;28;20049;-81
2022/05/02 00:49:38;;;;;;;7.63;6.78;;;;;;;16.45;44.64;93423.59;4991644;28;20175;-82
2022/05/02 00:52:04;;;;;;;7.15;6.45;;;;;;;16.45;44.67;93420.84;5015307;28;20041;-81
2022/05/02 00:54:30;;;;;;;7.90;6.72;;;;;;;16.46;44.32;93416.13;5010397;28;20594;-82
2022/05/02 00:56:55;;;;;;;8.00;6.50;;;;;;;16.46;44.66;93418.88;5009890;28;20041;-82
2022/05/02 00:59:20;;;;;;;7.32;6.55;;;;;;;16.45;44.74;93425.59;5009557;28;20523;-82
2022/05/02 01:01:46;;;;;;;8.38;6.57;;;;;;;16.45;44.36;93431.06;5004939;28;20503;-81
2022/05/02 01:04:11;;;;;;;9.50;7.35;;;;;;;16.44;44.48;93422.13;5057601;28;20037;-81
2022/05/02 01:09:21;;;;;;;7.95;6.45;;;;;;;16.45;44.37;93422.88;5051573;28;20124;-81
2022/05/02 01:11:46;;;;;;;7.97;6.63;;;;;;;16.44;44.46;93413.94;5034818;28;20079;-81
2022/05/02 01:14:12;;;;;;;7.60;6.80;;;;;;;16.45;44.81;93417.41;5045570;28;20069;-83
2022/05/02 01:16:37;;;;;;;7.47;6.53;;;;;;;16.44;44.18;93415.91;5056843;28;20427;-81
2022/05/02 01:19:03;;;;;;;7.22;6.47;;;;;;;16.45;44.26;93417.41;5028716;28;20499;-81
2022/05/02 01:21:29;;;;;;;7.93;7.13;;;;;;;16.44;44.39;93418.66;5045970;28;20480;-81
2022/05/02 01:23:57;;;;;;;7.03;6.22;;;;;;;16.43;44.66;93412.44;5032660;28;20041;-82
2022/05/02 01:26:23;;;;;;;8.05;7.05;;;;;;;16.44;44.35;93413.94;5031707;28;20029;-84
2022/05/02 01:28:49;;;;;;;7.10;6.35;;;;;;;16.42;44.32;93413.69;5057020;28;20036;-82
2022/05/02 01:31:15;;;;;;;7.78;6.60;;;;;;;16.42;44.42;93410.22;5034018;28;20025;-81
2022/05/02 01:33:41;;;;;;;8.35;6.32;;;;;;;16.43;44.35;93403.53;5028933;28;20037;-81
2022/05/02 01:36:07;;;;;;;7.55;6.75;;;;;;;16.42;44.53;93412.94;5045562;28;20041;-82
2022/05/02 01:38:32;;;;;;;7.10;6.40;;;;;;;16.42;44.20;93408.22;5029841;28;20033;-81
2022/05/02 01:40:59;;;;;;;8.38;7.18;;;;;;;16.41;44.25;93412.19;5062078;28;20484;-81
2022/05/02 01:43:25;;;;;;;6.97;5.85;;;;;;;16.41;44.65;93414.94;5040284;28;20088;-81
2022/05/02 01:45:50;;;;;;;8.20;6.22;;;;;;;16.41;44.30;93409.47;5047069;28;20141;-83
2022/05/02 01:48:16;;;;;;;9.13;7.00;;;;;;;16.43;44.28;93409.72;5040383;28;20033;-82
2022/05/02 01:50:41;;;;;;;7.38;5.85;;;;;;;16.42;44.52;93410.97;5046029;28;20037;-82
2022/05/02 01:53:07;;;;;;;7.78;6.75;;;;;;;16.42;44.06;93410.22;5061219;28;20376;-82
2022/05/02 01:55:32;;;;;;;8.57;6.72;;;;;;;16.41;44.17;93408.72;5010546;28;20515;-81
2022/05/02 01:57:58;;;;;;;7.25;6.45;;;;;;;16.40;44.20;93407.97;5027803;28;20507;-81
2022/05/02 02:00:23;;;;;;;6.57;5.88;;;;;;;16.41;44.29;93403.28;5012375;28;20048;-83
2022/05/02 02:02:48;;;;;;;7.95;6.53;;;;;;;16.40;44.24;93401.78;5014268;28;20042;-82
2022/05/02 02:07:58;;;;;;;7.13;5.78;;;;;;;16.41;44.22;93392.34;5019798;28;20040;-82
2022/05/02 02:10:23;;;;;;;6.97;5.90;;;;;;;16.39;44.28;93406.50;5026986;28;20034;-82
2022/05/02 02:12:49;;;;;;;7.03;6.32;;;;;;;16.39;44.53;93390.13;4994904;28;20424;-81
2022/05/02 02:15:14;;;;;;;7.97;5.95;;;;;;;16.40;44.14;93407.25;4975070;28;20540;-81
2022/05/02 02:17:41;;;;;;;7.25;6.43;;;;;;;16.39;44.44;93397.56;5029987;28;20052;-81
2022/05/02 02:20:07;;;;;;;7.30;6.53;;;;;;;16.39;44.08;93398.31;4997446;28;20080;-81
2022/05/02 02:22:32;;;;;;;7.75;6.30;;;;;;;16.40;44.10;93399.06;5015189;28;20037;-82
2022/05/02 02:24:58;;;;;;;7.15;6.00;;;;;;;16.39;44.34;93395.59;4995618;28;20041;-82
2022/05/02 02:27:23;;;;;;;6.97;6.22;;;;;;;16.39;44.44;93387.41;5061990;28;20028;-81
2022/05/02 02:29:49;;;;;;;8.45;6.55;;;;;;;16.38;44.42;93388.63;5051693;28;20039;-81
2022/05/02 02:32:14;;;;;;;8.10;5.93;;;;;;;16.40;43.94;93397.06;5068419;28;20037;-81
2022/05/02 02:34:39;;;;;;;6.13;5.53;;;;;;;16.38;44.00;93385.91;5068974;28;20037;-81
2022/05/02 02:37:05;;;;;;;6.82;6.05;;;;;;;16.38;44.03;93382.44;5042837;28;20033;-82
2022/05/02 02:39:30;;;;;;;7.15;5.95;;;;;;;16.38;44.27;93388.63;5048779;28;20052;-81
2022/05/02 02:41:56;;;;;;;6.32;5.72;;;;;;;16.39;44.42;93390.13;5052268;28;20037;-81
2022/05/02 02:44:21;;;;;;;6.53;5.85;;;;;;;16.38;44.27;93385.91;5069315;28;22761;-81
2022/05/02 02:46:46;;;;;;;6.60;5.95;;;;;;;16.37;44.20;93384.41;5052322;28;20051;-81
2022/05/02 02:49:12;;;;;;;6.40;5.53;;;;;;;16.39;44.48;93384.66;5085201;28;20505;-81
2022/05/02 02:51:37;;;;;;;7.35;6.15;;;;;;;16.39;44.31;93370.28;5068165;28;20044;-81
2022/05/02 02:54:03;;;;;;;6.90;6.00;;;;;;;16.37;44.20;93373.50;5050493;28;20037;-81
2022/05/02 02:56:28;;;;;;;6.72;5.93;;;;;;;16.37;44.38;93372.75;5051702;28;20040;-82
2022/05/02 02:58:53;;;;;;;6.68;5.70;;;;;;;16.36;44.39;93374.75;5051143;28;20510;-81
2022/05/02 03:01:19;;;;;;;7.03;6.32;;;;;;;16.35;44.00;93367.81;5050565;28;20499;-81
2022/05/02 03:03:44;;;;;;;6.35;5.75;;;;;;;16.39;44.42;93364.81;5051142;28;20037;-81
2022/05/02 03:06:10;;;;;;;6.30;5.68;;;;;;;16.38;44.16;93368.78;5050754;28;20040;-81
2022/05/02 03:08:42;;;;;;;6.05;5.45;;;;;;;16.36;44.15;93365.81;5035287;28;20047;-82
2022/05/02 03:11:07;;;;;;;6.55;5.85;;;;;;;16.37;44.46;93361.84;5047235;28;20044;-81
2022/05/02 03:13:36;;;;;;;7.10;5.63;;;;;;;16.36;44.36;93355.66;5031286;28;20384;-82
2022/05/02 03:16:02;;;;;;;7.00;5.60;;;;;;;16.35;44.00;93362.34;5033978;28;20470;-81
2022/05/02 03:18:27;;;;;;;6.28;5.68;;;;;;;16.35;44.33;93351.44;5067366;28;20045;-81
2022/05/02 03:20:53;;;;;;;6.15;5.55;;;;;;;16.36;44.44;93354.91;5031887;28;20036;-81
2022/05/02 03:23:18;;;;;;;7.25;5.72;;;;;;;16.35;44.34;93354.16;5049568;28;20029;-81
2022/05/02 03:25:44;;;;;;;6.97;5.97;;;;;;;16.35;44.12;93350.69;5068976;28;20032;-81
2022/05/02 03:28:09;;;;;;;6.82;5.72;;;;;;;16.35;44.62;93351.44;5050475;28;20036;-81
2022/05/02 03:30:35;;;;;;;5.93;5.38;;;;;;;16.35;44.49;93350.69;5051067;28;20040;-82
2022/05/02 03:33:01;;;;;;;5.95;4.95;;;;;;;16.34;44.49;93349.94;5050880;28;20056;-81
2022/05/02 03:35:26;;;;;;;6.47;5.78;;;;;;;16.35;44.13;93345.97;5050176;28;20553;-81
2022/05/02 03:37:52;;;;;;;6.35;5.22;;;;;;;16.34;44.31;93344.50;5048105;28;20041;-83
2022/05/02 03:40:18;;;;;;;5.65;4.85;;;;;;;16.34;44.25;93352.69;5066783;28;20064;-81
2022/05/02 03:42:45;;;;;;;6.57;5.75;;;;;;;16.34;44.40;93349.19;5050875;28;20111;-82
2022/05/02 03:45:10;;;;;;;11.77;5.72;;;;;;;16.34;44.32;93346.47;5067056;28;20194;-82
2022/05/02 03:47:36;;;;;;;10.85;6.03;;;;;;;16.34;44.47;93352.69;5025032;28;20493;-82
2022/05/02 03:50:01;;;;;;;7.75;5.90;;;;;;;16.36;44.19;93350.19;5027378;28;20435;-85
2022/05/02 03:52:27;;;;;;;12.07;5.68;;;;;;;16.41;44.34;93360.38;5016493;28;20037;-83
2022/05/02 03:54:52;;;;;;;5.95;5.35;;;;;;;16.38;44.08;93352.44;5046541;28;20311;-83
2022/05/02 03:57:18;;;;;;;7.40;5.63;;;;;;;16.42;44.01;93350.94;5029939;28;20033;-82
2022/05/02 03:59:43;;;;;;;6.22;5.30;;;;;;;16.39;44.02;93349.19;5030237;28;20082;-82
2022/05/02 04:02:08;;;;;;;5.38;4.65;;;;;;;16.37;44.04;93345.47;5038524;28;20380;-82
2022/05/02 04:04:34;;;;;;;5.72;4.97;;;;;;;16.36;43.95;93352.91;5047057;28;20543;-82
2022/05/02 04:06:59;;;;;;;7.07;5.40;;;;;;;16.36;44.28;93344.00;5024923;28;20041;-82
2022/05/02 04:09:25;;;;;;;8.85;5.20;;;;;;;16.40;43.96;93347.22;5044058;28;20045;-85
2022/05/02 04:11:50;;;;;;;11.30;5.65;;;;;;;16.35;43.90;93345.25;5045401;28;20049;-82
2022/05/02 04:14:16;;;;;;;9.60;6.38;;;;;;;16.33;44.13;93345.00;5045585;28;20025;-86
2022/05/02 04:16:41;;;;;;;9.02;6.82;;;;;;;16.31;44.33;93337.31;5052537;28;20037;-83
2022/05/02 04:19:07;;;;;;;8.82;5.80;;;;;;;16.29;44.38;93337.06;5056477;28;20060;-81
2022/05/02 04:21:32;;;;;;;9.30;5.47;;;;;;;16.24;44.38;93337.81;5045652;28;20045;-82
2022/05/02 04:23:58;;;;;;;9.10;6.55;;;;;;;16.26;44.03;93348.97;5052095;28;20036;-83
2022/05/02 04:26:23;;;;;;;9.07;6.53;;;;;;;16.27;44.20;93349.69;5017577;28;20110;-84
2022/05/02 04:28:49;;;;;;;14.77;7.43;;;;;;;16.28;44.28;93343.75;5040441;28;20044;-91
2022/05/02 04:31:15;;;;;;;11.95;7.38;;;;;;;16.36;44.40;93349.44;5016667;28;20052;-83
2022/05/02 04:33:40;;;;;;;12.93;6.90;;;;;;;16.36;44.41;93347.47;5045268;28;20295;-86
2022/05/02 04:36:06;;;;;;;10.82;7.40;;;;;;;16.38;44.33;93347.72;5045149;28;20037;-81
2022/05/02 04:38:32;;;;;;;10.70;6.32;;;;;;;16.38;44.60;93344.25;5035437;28;20061;-82
2022/05/02 04:40:57;;;;;;;13.10;5.95;;;;;;;16.41;44.67;93338.53;5052509;28;20808;-86
2022/05/02 04:43:23;;;;;;;15.13;6.70;;;;;;;16.44;44.44;93345.72;5046451;28;20064;-82
2022/05/02 04:45:48;;;;;;;20.48;6.53;;;;;;;16.50;44.40;93344.94;5042597;28;20046;-86
2022/05/02 04:48:14;;;;;;;13.63;6.75;;;;;;;16.51;44.39;93344.44;5039773;28;20803;-84
2022/05/02 04:50:39;;;;;;;23.88;7.10;;;;;;;16.47;44.13;93349.41;5033408;28;20099;-82
2022/05/02 04:53:05;;;;;;;20.52;8.15;;;;;;;16.44;44.04;93345.72;5012695;28;20109;-83
2022/05/02 04:55:30;;;;;;;34.55;10.77;;;;;;;16.44;44.03;93348.47;5030101;28;20048;-85
2022/05/02 04:57:56;;;;;;;30.92;9.77;;;;;;;16.46;43.99;93343.22;5046533;28;20124;-83
2022/05/02 05:00:22;;;;;;;28.10;8.55;;;;;;;16.43;44.29;93346.97;5042698;28;20037;-87
2022/05/02 05:02:47;;;;;;;47.13;19.73;;;;;;;16.44;44.04;93347.72;5046323;28;20041;-83
2022/05/02 05:05:13;;;;;;;42.92;22.25;;;;;;;16.36;44.00;93349.44;5047817;28;20543;-86
2022/05/02 05:07:38;;;;;;;38.63;17.30;;;;;;;16.26;44.51;93348.97;5028820;28;20029;-83
2022/05/02 05:10:06;;;;;;;47.53;22.15;;;;;;;16.23;44.77;93360.16;5041460;28;20034;-85
2022/05/02 05:12:50;;;;;;;54.53;22.02;;;;;;;16.13;44.99;93346.00;5013839;28;20080;-84
2022/05/02 05:18:20;;;;;;;32.40;15.05;;;;;;;16.08;45.24;93342.03;5055779;28;20750;-84
2022/05/02 05:20:56;;;;;;;52.10;23.80;;;;;;;16.09;45.22;93345.50;5036513;28;20040;-84
2022/05/02 05:23:27;;;;;;;54.97;24.65;;;;;;;16.01;45.81;93339.09;5013383;28;20040;-83
2022/05/02 05:26:14;;;;;;;56.38;22.92;;;;;;;16.01;45.54;93341.81;5064213;28;20123;-83
2022/05/02 05:28:51;;;;;;;67.18;20.45;;;;;;;15.94;45.81;93345.03;5056837;28;20049;-84
2022/05/02 05:31:41;;;;;;;58.03;19.00;;;;;;;15.99;45.82;93347.03;5057493;28;20539;-82
2022/05/02 05:34:21;;;;;;;58.50;20.17;;;;;;;15.95;45.90;93338.34;5049821;28;20065;-84
2022/05/02 05:37:20;;;;;;;52.95;14.82;;;;;;;15.89;45.99;93341.06;5050895;28;20055;-84
2022/05/02 05:39:52;;;;;;;49.97;19.65;;;;;;;15.85;46.25;93337.09;5044419;28;20041;-84
2022/05/02 05:42:30;;;;;;;50.95;22.75;;;;;;;15.86;46.04;93344.03;5010807;28;20036;-83
2022/05/02 05:45:05;;;;;;;47.22;23.13;;;;;;;15.81;46.65;93340.06;5029127;28;20056;-83
2022/05/02 05:47:45;;;;;;;78.32;27.92;;;;;;;15.81;46.67;93337.34;5016350;28;20672;-85
2022/05/02 05:50:25;;;;;;;41.70;20.67;;;;;;;15.84;46.52;93343.78;5047890;28;20045;-82
2022/05/02 05:53:05;;;;;;;59.70;24.42;;;;;;;15.77;46.97;93339.59;5035249;28;20029;-86
2022/05/02 05:55:57;;;;;;;74.60;30.23;;;;;;;15.78;47.06;93346.53;5050351;28;20123;-86
2022/05/02 05:58:45;;;;;;;78.15;30.60;;;;;;;15.80;47.00;93346.03;5046953;28;20747;-83
2022/05/02 06:01:13;;;;;;;91.18;33.38;;;;;;;15.76;47.57;93341.56;5033782;28;20123;-83
2022/05/02 06:03:51;;;;;;;74.88;26.00;;;;;;;15.80;47.20;93344.03;5021314;28;20048;-84
2022/05/02 06:06:16;;;;;;;53.30;20.83;;;;;;;15.86;47.74;93342.03;5062175;28;20117;-81
2022/05/02 06:08:42;;;;;;;42.25;17.38;;;;;;;15.80;48.10;93349.50;5070458;28;20511;-81
2022/05/02 06:11:07;;;;;;;38.03;17.67;;;;;;;15.83;48.99;93337.59;5015804;28;20037;-85
2022/05/02 06:13:33;;;;;;;30.60;16.17;;;;;;;15.90;49.10;93339.06;5042581;28;20056;-82
2022/05/02 06:18:43;;;;;;;25.77;11.80;;;;;;;15.96;48.66;93337.84;5039409;28;20047;-85
2022/05/02 06:21:08;;;;;;;16.02;10.48;;;;;;;15.98;48.48;93340.06;5036193;28;20037;-83
2022/05/02 06:23:39;;;;;;;24.83;13.95;;;;;;;15.95;48.45;93335.63;5033572;28;20033;-83
2022/05/02 06:26:05;;;;;;;42.33;13.40;;;;;;;15.99;48.41;93347.03;5044252;28;20068;-86
2022/05/02 06:28:43;;;;;;;33.33;14.63;;;;;;;16.05;48.58;93337.56;5033382;28;20115;-82
2022/05/02 06:31:15;;;;;;;37.35;13.65;;;;;;;16.11;48.13;93340.31;5052073;28;20044;-80
2022/05/02 06:33:41;;;;;;;32.03;13.43;;;;;;;16.13;47.79;93339.81;5038235;28;20102;-80
2022/05/02 06:36:37;;;;;;;55.63;20.63;;;;;;;16.19;47.76;93338.56;5040660;28;20039;-83
2022/05/02 06:39:03;;;;;;;39.55;18.13;;;;;;;16.23;47.11;93339.06;5048291;28;20155;-79
2022/05/02 06:41:32;;;;;;;59.92;25.58;;;;;;;16.24;47.25;93339.81;5036139;28;20056;-85
2022/05/02 06:44:05;;;;;;;63.78;28.42;;;;;;;16.28;47.23;93349.19;5047632;28;20071;-81
2022/05/02 06:46:38;;;;;;;71.45;35.75;;;;;;;16.33;47.06;93339.53;5028440;28;20064;-82
2022/05/02 06:49:04;;;;;;;86.65;44.92;;;;;;;16.37;46.65;93348.22;5040966;28;20048;-86
2022/05/02 06:51:35;;;;;;;88.70;42.30;;;;;;;16.39;46.76;93345.72;5048019;28;20045;-83
2022/05/02 06:54:19;;;;;;;104.05;50.38;;;;;;;16.43;46.53;93338.03;5067447;28;20053;-87
2022/05/02 06:56:46;;;;;;;92.15;49.15;;;;;;;16.49;46.31;93329.81;5033543;28;20045;-84
2022/05/02 06:59:26;;;;;;;112.40;62.38;;;;;;;16.49;46.42;93330.56;5043524;28;20052;-87
2022/05/02 07:01:55;;;;;;;121.55;67.22;;;;;;;16.51;46.08;93336.25;5051363;28;20136;-84
2022/05/02 07:04:35;;;;;;;122.38;71.10;;;;;;;16.54;46.31;93335.28;5047961;28;20041;-86
2022/05/02 07:07:15;;;;;;;123.03;71.35;;;;;;;16.55;46.08;93328.56;5052170;28;20140;-85
2022/05/02 07:09:45;;;;;;;126.25;72.30;;;;;;;16.58;46.01;93332.28;5043953;28;20403;-87
2022/05/02 07:12:18;;;;;;;152.55;81.13;;;;;;;16.60;45.89;93341.47;5031140;28;20037;-86
2022/05/02 07:15:02;;;;;;;152.27;87.60;;;;;;;16.61;45.78;93342.94;5048872;28;20116;-89
2022/05/02 07:17:42;;;;;;;179.73;96.28;;;;;;;16.63;45.91;93337.75;5038965;28;20045;-86
2022/05/02 07:20:30;;;;;;;176.32;95.35;;;;;;;16.67;46.09;93337.50;5043723;28;20413;-89
2022/05/02 07:23:32;;;;;;;177.38;97.90;;;;;;;16.68;46.01;93344.44;5053560;28;20071;-90
2022/05/02 07:26:02;;;;;;;195.63;102.45;;;;;;;16.71;45.72;93332.50;5004434;28;20046;-87
2022/05/02 07:28:35;;;;;;;184.77;100.88;;;;;;;16.73;45.74;93340.94;4941269;28;20116;-86
2022/05/02 07:31:01;;;;;;;171.15;95.03;;;;;;;16.74;45.62;93339.69;5000628;28;20133;-84
2022/05/02 07:33:33;;;;;;;194.73;102.45;;;;;;;16.75;45.49;93330.28;4973808;28;20060;-86
2022/05/02 07:36:01;;;;;;;197.48;107.15;;;;;;;16.79;45.74;93338.94;4956163;28;20039;-84
2022/05/02 07:38:28;;;;;;;275.20;134.73;;;;;;;16.81;45.37;93338.44;4946151;28;20455;-87
2022/05/02 07:43:38;;;;;;;237.10;124.18;;;;;;;16.84;45.47;93345.63;4966487;28;20138;-86
2022/05/02 07:46:04;;;;;;;215.55;117.13;;;;;;;16.83;45.43;93350.34;4955047;28;20504;-82
2022/05/02 07:48:30;;;;;;;223.75;122.40;;;;;;;16.85;45.27;93328.00;4989222;28;20108;-88
2022/05/02 07:50:57;;;;;;;228.23;115.85;;;;;;;16.88;45.30;93349.59;4988119;28;20038;-87
2022/05/02 07:53:22;;;;;;;208.52;111.25;;;;;;;16.85;45.49;93336.94;4954490;28;20081;-86
2022/05/02 07:55:48;;;;;;;199.13;108.00;;;;;;;16.84;45.71;93340.91;4960736;28;20513;-87
2022/05/02 07:58:14;;;;;;;189.27;106.93;;;;;;;16.84;45.83;93338.19;4971153;28;20042;-86
2022/05/02 08:00:39;;;;;;;200.20;110.93;;;;;;;16.88;45.72;93340.66;4945029;28;20065;-85
2022/05/02 08:03:05;;;;;;;209.43;107.78;;;;;;;16.87;45.70;93342.66;5035063;28;20360;-87
2022/05/02 08:05:30;;;;;;;196.07;104.55;;;;;;;16.83;45.88;93341.41;5057513;28;20075;-89
2022/05/02 08:08:00;;;;;;;248.07;121.68;;;;;;;16.86;45.37;93340.41;5037722;28;20188;-89
2022/05/02 08:10:34;;;;;;;215.80;112.68;;;;;;;16.90;45.39;93338.16;5034053;28;20068;-85
2022/05/02 08:13:37;;;;;;;206.27;105.85;;;;;;;16.86;45.28;93346.63;5050430;28;20076;-83
2022/05/02 08:16:19;;;;;;;190.32;99.15;;;;;;;16.85;45.78;93345.13;5041736;28;20094;-83
2022/05/02 08:19:03;;;;;;;150.05;77.35;;;;;;;16.84;46.17;93332.72;5026472;28;20032;-83
2022/05/02 08:27:15;;;;;;;153.38;80.50;;;;;;;16.84;45.94;93346.38;5057713;28;20041;-88
2022/05/02 08:27:39;;;;;;;156.05;69.10;;;;;;;16.87;45.84;93336.44;5029542;28;20190;-85
2022/05/02 08:30:11;;;;;;;138.77;64.18;;;;;;;16.90;45.73;93346.34;5031991;28;20452;-85
2022/05/02 08:32:42;;;;;;;133.60;67.43;;;;;;;16.87;45.38;93353.56;5040250;28;20519;-85
2022/05/02 08:35:16;;;;;;;155.63;73.22;;;;;;;16.87;45.37;93350.09;5047224;28;20037;-84
2022/05/02 08:38:12;;;;;;;228.30;111.50;;;;;;;16.87;45.01;93339.19;5041616;28;20045;-88
2022/05/02 08:41:04;;;;;;;175.25;94.00;;;;;;;16.87;45.03;93339.94;5048494;28;20048;-84
2022/05/02 08:43:48;;;;;;;178.30;98.38;;;;;;;16.92;45.33;93339.13;5058937;28;20051;-90
2022/05/02 08:46:32;;;;;;;177.95;98.93;;;;;;;16.93;44.93;93340.63;5034451;28;20037;-89
2022/05/02 08:49:38;;;;;;;175.18;99.70;;;;;;;16.94;44.85;93342.09;5048652;28;20128;-85
2022/05/02 08:52:15;;;;;;;177.93;99.25;;;;;;;16.98;45.07;93333.66;5042690;28;20132;-84
2022/05/02 08:54:59;;;;;;;177.02;95.78;;;;;;;16.98;44.50;93348.06;5044781;28;20059;-88
2022/05/02 08:57:44;;;;;;;153.13;78.68;;;;;;;17.00;44.23;93347.56;5052816;28;20400;-86
2022/05/02 09:00:30;;;;;;;116.60;66.53;;;;;;;17.02;44.29;93347.78;5031029;28;20033;-84
2022/05/02 09:03:07;;;;;;;100.60;55.53;;;;;;;16.98;44.06;93348.06;5053772;28;20158;-88
2022/05/02 09:05:44;;;;;;;102.03;54.60;;;;;;;16.96;43.78;93353.28;5050900;28;20047;-83
2022/05/02 09:08:13;;;;;;;103.63;51.30;;;;;;;16.97;43.49;93359.47;5038785;28;20029;-83
2022/05/02 09:10:41;;;;;;;106.18;40.08;;;;;;;16.95;42.96;93342.84;5049758;28;20455;-88
2022/05/02 09:13:31;;;;;;;149.18;63.53;;;;;;;16.96;43.44;93338.88;5055493;28;20089;-84
2022/05/02 09:16:11;;;;;;;105.70;43.33;;;;;;;16.98;43.30;93347.31;5035647;28;20768;-84
2022/05/02 09:18:52;;;;;;;122.18;57.60;;;;;;;16.99;43.28;93349.53;5038270;28;20086;-84
2022/05/02 09:21:42;;;;;;;102.00;47.25;;;;;;;16.99;43.23;93349.53;5066432;28;20044;-87
2022/05/02 09:25:02;;;;;;;101.78;47.40;;;;;;;16.99;43.40;93348.81;5050215;28;20079;-86
2022/05/02 09:27:53;;;;;;;184.60;92.63;;;;;;;16.92;42.61;93349.31;4982780;28;20180;-85
2022/05/02 09:30:33;;;;;;;;;;;;;;;16.95;42.62;93349.06;4941897;28;20047;-86
2022/05/02 09:33:20;;;;;;;148.60;49.60;;;;;;;16.95;42.66;93343.59;4973743;28;19987;-87
2022/05/02 09:35:58;;;;;;;117.75;48.58;;;;;;;16.90;42.94;93351.81;4990054;28;20049;-89
2022/05/02 09:38:25;;;;;;;138.77;50.13;;;;;;;16.90;43.11;93346.34;4952370;28;20424;-89
2022/05/02 09:40:59;;;;;;;122.88;51.00;;;;;;;16.88;43.10;93338.69;4968811;28;20041;-88
2022/05/02 09:49:47;;;;;;;109.03;47.78;;;;;;;16.96;43.54;93331.44;4964593;28;20054;-90
2022/05/02 09:52:34;;;;;;;103.30;48.40;;;;;;;16.96;43.58;93330.69;4968717;28;20042;-91
2022/05/02 09:58:19;;;;;;;101.32;49.03;;;;;;;16.96;43.77;93339.63;4991123;28;20049;-91
2022/05/02 10:01:08;;;;;;;119.35;52.80;;;;;;;16.99;43.62;93326.94;4971551;28;20091;-90
2022/05/02 10:04:00;;;;;;;95.43;43.60;;;;;;;16.98;43.76;93333.66;5051564;28;20120;-89
2022/05/02 10:06:42;;;;;;;137.57;59.65;;;;;;;16.98;43.76;93328.94;5023145;28;20037;-90
2022/05/02 10:09:31;;;;;;;117.63;54.40;;;;;;;16.99;43.92;93327.69;5026822;28;20029;-89
2022/05/02 10:12:26;;;;;;;127.32;51.40;;;;;;;17.01;43.81;93321.72;5053756;28;20055;-89
2022/05/02 10:15:16;;;;;;;135.23;64.88;;;;;;;17.02;43.93;93328.69;5049209;28;20060;-92
2022/05/02 10:17:44;;;;;;;124.15;65.93;;;;;;;17.04;44.06;93315.28;5050273;28;20044;-90
2022/05/02 10:20:13;;;;;;;108.88;53.58;;;;;;;17.04;43.65;93328.94;5048513;28;20089;-89
2022/05/02 10:22:47;;;;;;;110.72;57.88;;;;;;;17.06;43.56;93327.19;5053255;28;20033;-89
2022/05/02 10:25:15;;;;;;;54.42;28.45;;;;;;;17.06;43.24;93316.25;5045056;28;20048;-89
2022/05/02 10:28:21;;;;;;;61.42;31.60;;;;;;;17.02;43.93;93307.56;5058894;28;20043;-89
2022/05/02 10:31:09;;;;;;;86.25;44.00;;;;;;;17.04;43.66;93316.00;5055254;28;20920;-90
2022/05/02 10:33:48;;;;;;;88.80;45.53;;;;;;;17.05;43.78;93317.50;5041282;28;20037;-92
2022/05/02 10:36:14;;;;;;;103.93;56.95;;;;;;;17.08;43.69;93313.03;5053868;28;20037;-91
2022/05/02 10:38:51;;;;;;;73.07;43.95;;;;;;;17.04;43.94;93309.81;5034365;28;20041;-90
2022/05/02 10:41:20;;;;;;;95.90;52.38;;;;;;;17.04;43.87;93316.00;5033731;28;20095;-89
2022/05/02 10:43:51;;;;;;;105.53;53.03;;;;;;;17.04;43.58;93304.34;5026107;28;20033;-90
2022/05/02 10:46:18;;;;;;;85.55;46.20;;;;;;;17.05;43.82;93306.56;5046915;28;20037;-92
2022/05/02 10:48:55;;;;;;;81.07;43.55;;;;;;;17.02;43.95;93306.84;5035990;28;20029;-89
2022/05/02 10:51:35;;;;;;;72.50;40.78;;;;;;;17.05;44.09;93308.56;5050652;28;20206;-91
2022/05/02 10:54:19;;;;;;;191.50;55.77;;;;;;;17.08;44.01;93313.03;5036158;28;20087;-91
2022/05/02 10:56:46;;;;;;;144.75;50.05;;;;;;;17.09;43.73;93306.31;5051956;28;20515;-89
2022/05/02 10:59:14;;;;;;;135.35;55.92;;;;;;;17.08;44.11;93313.03;5025625;28;20402;-88
2022/05/02 11:01:54;;;;;;;111.63;44.03;;;;;;;17.07;43.63;93315.00;5017755;28;20422;-88
2022/05/02 11:04:38;;;;;;;115.07;41.45;;;;;;;17.07;43.70;93315.00;5017288;28;20053;-90
2022/05/02 11:07:24;;;;;;;72.72;35.15;;;;;;;17.08;43.88;93313.75;4998882;28;20471;-91
2022/05/02 11:10:11;;;;;;;74.82;37.17;;;;;;;17.06;43.75;93313.53;5026036;28;20042;-90
2022/05/02 11:12:47;;;;;;;83.25;36.35;;;;;;;17.03;43.97;93314.53;4989129;28;20112;-88
2022/05/02 11:15:30;;;;;;;74.57;33.65;;;;;;;17.04;43.98;93313.28;5008499;28;20045;-91
2022/05/02 11:21:29;;;;;;;72.20;37.15;;;;;;;17.08;43.84;93313.03;4984163;28;20129;-88
2022/05/02 11:24:17;;;;;;;101.18;37.28;;;;;;;17.06;43.49;93315.50;4970831;28;20039;-87
2022/05/02 11:26:46;;;;;;;73.43;37.00;;;;;;;17.06;43.43;93302.59;4970857;28;20070;-87
2022/05/02 11:29:28;;;;;;;89.32;35.88;;;;;;;17.05;43.45;93314.75;4957179;28;20577;-91
2022/05/02 11:31:57;;;;;;;79.28;36.53;;;;;;;17.08;43.16;93307.56;4964657;28;20034;-88
2022/05/02 11:34:26;;;;;;;87.22;38.47;;;;;;;17.10;43.36;93313.25;4971391;28;20083;-88
2022/05/02 11:36:59;;;;;;;77.68;38.20;;;;;;;17.08;43.48;93307.56;4983525;28;20073;-92
2022/05/02 11:39:43;;;;;;;101.53;39.55;;;;;;;17.09;43.62;93304.31;5005054;28;20261;-88
2022/05/02 11:42:15;;;;;;;86.38;38.35;;;;;;;17.10;44.09;93297.59;5025953;28;20045;-89
2022/05/02 11:45:17;;;;;;;74.69;35.29;;;;;;;17.08;43.83;93297.38;4971722;28;10000676;-92
2022/05/02 11:48:06;;;;;;;100.65;41.72;;;;;;;17.10;43.82;93300.31;4460733;28;10001768;-89
2022/05/02 11:50:51;;;;;;;98.38;44.47;;;;;;;17.11;43.54;93290.88;4987684;28;20046;-91
2022/05/02 11:53:18;;;;;;;94.85;46.85;;;;;;;17.16;43.39;93296.81;4961942;28;20069;-86
2022/05/02 11:55:45;;;;;;;152.73;51.33;;;;;;;17.14;43.57;93284.41;4991663;28;20113;-89
2022/05/02 11:58:25;;;;;;;106.22;47.58;;;;;;;17.11;43.55;93285.41;5002880;28;20111;-90
2022/05/02 12:01:06;;;;;;;127.03;50.53;;;;;;;17.16;43.24;93286.63;5002143;28;20043;-90
2022/05/02 12:03:50;;;;;;;;;;;;;;;17.16;43.38;93288.63;4996425;28;20045;-89
2022/05/02 12:06:16;;;;;;;126.20;57.00;;;;;;;17.16;44.00;93283.91;5021394;28;19929;-87
2022/05/02 12:08:47;;;;;;;113.57;51.83;;;;;;;17.19;43.65;93274.72;5012459;28;20070;-88
2022/05/02 12:11:14;;;;;;;134.30;56.80;;;;;;;17.16;43.86;93285.91;5021808;28;20132;-88
2022/05/02 12:13:45;;;;;;;117.63;48.45;;;;;;;17.17;43.93;93276.47;5009441;28;20034;-90